Terminal Aerodrome Forecast
Issued by NWS Sterling, VA

Current Version | Previous Version | Text Only | Print | Product List | Glossary Off
Versions: 1 2 3 4 5 6 7 8 9 10 11 12 13 14 15 16 17 18 19 20 21 22 23

000
FTUS41 KLWX 221507 AAA
TAFIAD
TAF AMD
KIAD 221507Z 2215/2318 VRB03KT P6SM SCT250
     FM221800 16006KT P6SM SCT250
     FM231000 16004KT P6SM SCT035
     FM231200 VRB03KT P6SM BKN035
     FM231600 16007KT P6SM BKN250=

USA.gov is the U.S. government's official web portal to all federal, state and local government web resources and services.